createdAt,value
2022-10-04T00:01:22.539Z,0.20
2022-10-04T00:04:41.996Z,0.15
2022-10-04T00:07:52.948Z,0.25
2022-10-04T00:11:15.143Z,0.17
2022-10-04T00:14:25.113Z,0.20
2022-10-04T00:17:31.653Z,0.10
2022-10-04T00:20:50.502Z,0.20
2022-10-04T00:24:10.538Z,0.10
2022-10-04T00:27:23.144Z,0.20
2022-10-04T00:30:25.863Z,0.10
2022-10-04T00:33:39.504Z,0.10
2022-10-04T00:36:47.449Z,0.10
2022-10-04T00:40:02.881Z,0.00
2022-10-04T00:43:16.479Z,0.17
2022-10-04T00:46:24.867Z,0.10
2022-10-04T00:49:34.665Z,0.10
2022-10-04T00:52:44.001Z,0.10
2022-10-04T00:55:55.416Z,0.13
2022-10-04T00:59:00.058Z,0.10
2022-10-04T01:02:14.590Z,0.10
2022-10-04T01:05:26.571Z,0.10
2022-10-04T01:08:40.165Z,0.10
2022-10-04T01:11:47.663Z,0.15
2022-10-04T01:14:56.936Z,0.10
2022-10-04T01:18:10.794Z,0.20
2022-10-04T01:21:19.253Z,0.20
2022-10-04T01:24:22.443Z,0.10
2022-10-04T01:27:34.026Z,0.10
2022-10-04T01:30:36.211Z,0.10
2022-10-04T01:33:38.235Z,0.10
2022-10-04T01:36:40.325Z,0.10
2022-10-04T01:39:42.325Z,0.20
2022-10-04T01:42:50.411Z,0.20
2022-10-04T01:45:58.527Z,0.10
2022-10-04T01:49:11.003Z,0.30
2022-10-04T01:52:30.333Z,0.10
2022-10-04T01:55:40.507Z,0.17
2022-10-04T01:58:47.074Z,0.30
2022-10-04T02:01:57.396Z,0.10
2022-10-04T02:05:00.143Z,0.10
2022-10-04T02:08:06.000Z,0.10
2022-10-04T02:11:08.140Z,0.20
2022-10-04T02:14:17.903Z,0.20
2022-10-04T02:17:28.270Z,0.10
2022-10-04T02:20:30.405Z,0.10
2022-10-04T02:23:33.502Z,0.20
2022-10-04T02:26:35.483Z,0.20
2022-10-04T02:29:37.665Z,0.10
2022-10-04T02:32:58.224Z,0.30
2022-10-04T02:36:01.256Z,0.20
2022-10-04T02:39:14.288Z,0.20
2022-10-04T02:42:45.497Z,0.10
2022-10-04T02:45:47.444Z,0.10
2022-10-04T02:48:59.409Z,0.10
2022-10-04T02:52:10.537Z,0.10
2022-10-04T02:55:24.315Z,0.20
2022-10-04T02:58:27.463Z,0.10
2022-10-04T03:01:52.446Z,0.20
2022-10-04T03:05:00.179Z,0.10
2022-10-04T03:08:04.893Z,0.10
2022-10-04T03:11:08.291Z,0.20
2022-10-04T03:14:16.059Z,0.23
2022-10-04T03:17:18.137Z,0.10
2022-10-04T03:20:21.379Z,0.30
2022-10-04T03:23:23.683Z,0.10
2022-10-04T03:26:41.667Z,0.10
2022-10-04T03:29:43.854Z,0.10
2022-10-04T03:32:46.912Z,0.20
2022-10-04T03:35:55.575Z,0.17
2022-10-04T03:38:58.627Z,0.00
2022-10-04T03:42:08.226Z,0.13
2022-10-04T03:45:17.401Z,0.10
2022-10-04T03:48:28.899Z,0.00
2022-10-04T03:51:31.123Z,0.33
2022-10-04T03:54:33.655Z,0.20
2022-10-04T03:57:37.358Z,0.20
2022-10-04T04:00:45.692Z,0.45
2022-10-04T04:03:53.517Z,0.30
2022-10-04T04:07:44.828Z,0.30
2022-10-04T04:10:51.230Z,0.10
2022-10-04T04:14:06.084Z,0.45
2022-10-04T04:17:25.978Z,0.17
2022-10-04T04:20:36.737Z,0.10
2022-10-04T04:23:48.729Z,0.30
2022-10-04T04:26:56.058Z,0.20
2022-10-04T04:30:00.748Z,0.20
2022-10-04T04:33:10.204Z,0.20
2022-10-04T04:36:15.203Z,0.22
2022-10-04T04:39:37.211Z,0.38
2022-10-04T04:42:39.495Z,0.10
2022-10-04T04:45:41.676Z,0.15
2022-10-04T04:48:45.197Z,0.30
2022-10-04T04:51:51.409Z,0.10
2022-10-04T04:54:55.233Z,0.27
2022-10-04T04:57:58.837Z,0.00
2022-10-04T05:01:04.478Z,0.10
2022-10-04T05:04:09.266Z,0.45
2022-10-04T05:07:17.067Z,0.50
2022-10-04T05:10:31.976Z,0.30
2022-10-04T05:13:52.655Z,0.20
2022-10-04T05:16:55.470Z,0.30
2022-10-04T05:20:00.546Z,0.20
2022-10-04T05:23:02.514Z,0.10
2022-10-04T05:26:10.247Z,0.10
2022-10-04T05:29:18.285Z,0.20
2022-10-04T05:32:41.777Z,0.27
2022-10-04T05:36:02.390Z,0.13
2022-10-04T05:39:27.139Z,0.13
2022-10-04T05:42:45.342Z,0.10
2022-10-04T05:45:48.924Z,0.20
2022-10-04T05:48:55.350Z,0.30
2022-10-04T05:52:13.060Z,0.03
2022-10-04T05:55:26.279Z,0.20
2022-10-04T05:59:10.299Z,0.20
2022-10-04T06:02:36.996Z,0.20
2022-10-04T06:05:53.968Z,0.50
2022-10-04T06:09:27.825Z,0.47
2022-10-04T06:12:55.289Z,0.10
2022-10-04T06:16:07.272Z,0.10
2022-10-04T06:19:39.344Z,0.30
2022-10-04T06:22:52.887Z,0.10
2022-10-04T06:25:59.197Z,0.20
2022-10-04T06:29:10.240Z,0.35
2022-10-04T06:32:26.924Z,0.15
2022-10-04T06:36:01.463Z,0.20
2022-10-04T06:39:06.166Z,0.10
2022-10-04T06:42:33.932Z,0.22
2022-10-04T06:45:54.388Z,0.30
2022-10-04T06:49:13.727Z,0.30
2022-10-04T06:52:33.547Z,0.20
2022-10-04T06:56:07.313Z,0.13
2022-10-04T06:59:18.649Z,0.20
2022-10-04T07:02:26.760Z,0.13
2022-10-04T07:05:37.614Z,0.10
2022-10-04T07:08:50.306Z,0.50
2022-10-04T07:11:58.977Z,0.20
2022-10-04T07:15:04.976Z,0.30
2022-10-04T07:18:13.820Z,0.30
2022-10-04T07:21:17.270Z,0.10
2022-10-04T07:24:25.596Z,0.20
2022-10-04T07:27:34.401Z,0.20
2022-10-04T07:30:40.003Z,1.33
2022-10-04T07:33:49.772Z,0.32
2022-10-04T07:36:55.323Z,0.20
2022-10-04T07:40:18.552Z,0.20
2022-10-04T07:43:29.403Z,0.22
2022-10-04T07:46:37.344Z,0.57
2022-10-04T07:49:40.804Z,0.20
2022-10-04T07:52:52.667Z,0.20
2022-10-04T07:56:06.511Z,0.20
2022-10-04T07:59:23.316Z,0.10
2022-10-04T08:02:32.140Z,0.30
2022-10-04T08:05:38.601Z,0.25
2022-10-04T08:08:43.881Z,0.10
2022-10-04T08:12:31.147Z,0.10
2022-10-04T08:15:40.501Z,0.30
2022-10-04T08:19:06.846Z,0.10
2022-10-04T08:22:34.536Z,0.20
2022-10-04T08:26:01.516Z,0.20
2022-10-04T08:29:40.670Z,0.10
2022-10-04T08:33:08.045Z,0.20
2022-10-04T08:36:28.172Z,0.10
2022-10-04T08:39:39.292Z,0.10
2022-10-04T08:42:41.964Z,0.20
2022-10-04T08:45:56.405Z,0.33
2022-10-04T08:49:36.369Z,0.30
2022-10-04T08:52:57.351Z,0.20
2022-10-04T08:56:10.193Z,0.30
2022-10-04T08:59:54.598Z,0.10
2022-10-04T09:03:21.717Z,0.20
2022-10-04T09:06:32.969Z,0.20
2022-10-04T09:09:35.147Z,0.25
2022-10-04T09:13:01.366Z,0.13
2022-10-04T09:16:03.250Z,0.30
2022-10-04T09:19:44.342Z,0.30
2022-10-04T09:23:01.703Z,0.20
2022-10-04T09:26:50.041Z,0.20
2022-10-04T09:29:57.799Z,0.17
2022-10-04T09:33:25.523Z,0.20
2022-10-04T09:36:45.366Z,0.63
2022-10-04T09:40:04.246Z,0.20
2022-10-04T09:43:24.629Z,0.10
2022-10-04T09:46:47.617Z,0.20
2022-10-04T09:50:37.409Z,0.35
2022-10-04T09:54:11.734Z,0.20
2022-10-04T09:57:31.294Z,0.20
2022-10-04T10:00:47.568Z,0.15
2022-10-04T10:04:26.585Z,0.20
2022-10-04T10:07:39.293Z,0.40
2022-10-04T10:11:33.718Z,0.20
2022-10-04T10:15:09.283Z,0.20
2022-10-04T10:18:38.236Z,0.13
2022-10-04T10:21:59.896Z,0.20
2022-10-04T10:25:38.184Z,0.30
2022-10-04T10:29:11.237Z,0.40
2022-10-04T10:32:38.192Z,0.20
2022-10-04T10:35:59.029Z,0.22
2022-10-04T10:39:27.049Z,0.10
2022-10-04T10:42:42.267Z,0.13
2022-10-04T10:45:53.274Z,0.20
2022-10-04T10:49:13.587Z,0.20
2022-10-04T10:52:49.104Z,0.20
2022-10-04T10:56:09.721Z,0.20
2022-10-04T10:59:45.694Z,0.20
2022-10-04T11:03:07.331Z,0.20
2022-10-04T11:06:58.927Z,0.10
2022-10-04T11:10:19.041Z,0.10
2022-10-04T11:13:48.123Z,0.10
2022-10-04T11:16:53.115Z,0.20
2022-10-04T11:20:16.969Z,0.17
2022-10-04T11:23:39.135Z,0.27
2022-10-04T11:27:18.700Z,0.20
2022-10-04T11:30:25.369Z,0.20
2022-10-04T11:34:16.426Z,0.17
2022-10-04T11:37:43.696Z,0.40
2022-10-04T11:41:07.332Z,0.30
2022-10-04T11:44:38.282Z,0.20
2022-10-04T11:47:40.153Z,0.20
2022-10-04T11:51:03.164Z,0.30
2022-10-04T11:54:13.977Z,0.30
2022-10-04T11:57:39.958Z,0.20
2022-10-04T12:00:58.003Z,0.10
2022-10-04T12:04:27.799Z,0.10
2022-10-04T12:07:50.463Z,0.30
2022-10-04T12:11:21.673Z,0.20
2022-10-04T12:14:42.688Z,0.17
2022-10-04T12:18:15.684Z,0.10
2022-10-04T12:22:03.069Z,0.20
2022-10-04T12:25:10.588Z,0.20
2022-10-04T12:28:12.869Z,0.40
2022-10-04T12:31:27.014Z,0.20
2022-10-04T12:34:57.509Z,0.30
2022-10-04T12:38:33.457Z,0.30
2022-10-04T12:41:35.305Z,0.10
2022-10-04T12:44:58.263Z,0.20
2022-10-04T12:48:15.493Z,0.20
2022-10-04T12:51:52.844Z,0.20
2022-10-04T12:55:20.985Z,0.17
2022-10-04T12:58:39.809Z,0.30
2022-10-04T13:01:48.267Z,0.30
2022-10-04T13:05:09.164Z,0.57
2022-10-04T13:08:29.120Z,0.60
2022-10-04T13:11:39.797Z,0.35
2022-10-04T13:14:59.628Z,0.20
2022-10-04T13:18:30.284Z,0.53
2022-10-04T13:21:41.154Z,0.30
2022-10-04T13:25:15.101Z,0.30
2022-10-04T13:29:02.739Z,0.20
2022-10-04T13:32:16.021Z,0.20
2022-10-04T13:35:27.919Z,0.20
2022-10-04T13:39:07.233Z,0.20
2022-10-04T13:42:26.758Z,0.20
2022-10-04T13:45:53.753Z,0.47
2022-10-04T13:49:13.831Z,0.38
2022-10-04T13:52:34.276Z,0.20
2022-10-04T13:56:12.759Z,0.27
2022-10-04T13:59:44.405Z,0.10
2022-10-04T14:03:02.721Z,0.17
2022-10-04T14:06:13.767Z,0.20
2022-10-04T14:09:23.086Z,0.20
2022-10-04T14:12:56.837Z,0.20
2022-10-04T14:16:17.081Z,0.22
2022-10-04T14:19:39.308Z,0.15
2022-10-04T14:22:53.824Z,0.10
2022-10-04T14:26:30.050Z,0.20
2022-10-04T14:29:52.003Z,0.20
2022-10-04T14:33:31.042Z,0.30
2022-10-04T14:37:01.059Z,0.38
2022-10-04T14:40:05.735Z,0.20
2022-10-04T14:43:29.417Z,0.20
2022-10-04T14:47:00.594Z,0.17
2022-10-04T14:50:08.095Z,0.20
2022-10-04T14:53:19.556Z,0.20
2022-10-04T14:56:59.312Z,0.20
2022-10-04T15:00:23.928Z,0.20
2022-10-04T15:03:47.319Z,0.27
2022-10-04T15:07:00.446Z,0.35
2022-10-04T15:10:05.634Z,0.20
2022-10-04T15:13:24.172Z,0.20
2022-10-04T15:16:48.214Z,0.10
2022-10-04T15:20:20.129Z,0.20
2022-10-04T15:23:42.888Z,0.20
2022-10-04T15:27:29.421Z,0.20
2022-10-04T15:30:53.786Z,0.10
2022-10-04T15:34:14.002Z,0.20
2022-10-04T15:37:34.073Z,0.10
2022-10-04T15:41:02.057Z,0.20
2022-10-04T15:44:14.019Z,0.20
2022-10-04T15:47:38.160Z,0.10
2022-10-04T15:51:03.542Z,0.20
2022-10-04T15:54:33.497Z,0.47
2022-10-04T15:57:44.374Z,0.60
2022-10-04T16:00:52.517Z,0.30
2022-10-04T16:04:16.320Z,0.40
2022-10-04T16:07:28.060Z,0.20
2022-10-04T16:10:49.281Z,0.30
2022-10-04T16:13:51.216Z,0.20
2022-10-04T16:17:28.713Z,0.40
2022-10-04T16:20:38.736Z,0.40
2022-10-04T16:23:43.799Z,0.20
2022-10-04T16:26:51.225Z,0.30
2022-10-04T16:30:24.919Z,0.22
2022-10-04T16:33:39.175Z,0.22
2022-10-04T16:36:54.141Z,0.28
2022-10-04T16:40:12.178Z,0.60
2022-10-04T16:43:35.663Z,1.17
2022-10-04T16:46:44.953Z,0.77
2022-10-04T16:49:57.123Z,0.98
2022-10-04T16:53:19.654Z,0.65
2022-10-04T16:56:23.678Z,1.70
2022-10-04T16:59:38.101Z,1.23
2022-10-04T17:03:27.113Z,0.70
2022-10-04T17:06:48.469Z,1.27
2022-10-04T17:10:28.387Z,1.17
2022-10-04T17:13:56.632Z,1.93
2022-10-04T17:17:14.799Z,1.13
2022-10-04T17:20:32.404Z,1.35
2022-10-04T17:23:59.226Z,0.82
2022-10-04T17:27:26.262Z,1.25
2022-10-04T17:30:43.567Z,0.97
2022-10-04T17:34:05.917Z,1.60
2022-10-04T17:37:26.700Z,1.42
2022-10-04T17:41:03.888Z,1.10
2022-10-04T17:44:45.324Z,2.15
2022-10-04T17:48:19.065Z,1.67
2022-10-04T17:51:42.406Z,2.15
2022-10-04T17:55:13.146Z,2.13
2022-10-04T17:58:26.694Z,2.20
2022-10-04T18:01:46.498Z,3.88
2022-10-04T18:04:59.974Z,4.43
2022-10-04T18:08:12.908Z,6.22
2022-10-04T18:11:21.127Z,5.72
2022-10-04T18:15:01.753Z,7.07
2022-10-04T18:18:41.195Z,3.60
2022-10-04T18:21:49.497Z,2.43
2022-10-04T18:25:26.813Z,0.95
2022-10-04T18:28:29.442Z,2.22
2022-10-04T18:31:41.271Z,4.05
2022-10-04T18:34:43.550Z,3.55
2022-10-04T18:37:45.621Z,2.13
2022-10-04T18:41:00.452Z,3.08
2022-10-04T18:44:06.816Z,2.50
2022-10-04T18:47:17.269Z,2.08
2022-10-04T18:50:32.022Z,3.13
2022-10-04T18:53:43.714Z,2.83
2022-10-04T18:57:05.782Z,3.38
2022-10-04T19:00:32.621Z,2.00
2022-10-04T19:03:43.644Z,3.77
2022-10-04T19:06:48.276Z,2.35
2022-10-04T19:10:19.327Z,1.52
2022-10-04T19:13:36.358Z,0.60
2022-10-04T19:16:59.030Z,1.33
2022-10-04T19:20:18.958Z,0.98
2022-10-04T19:23:33.272Z,1.63
2022-10-04T19:26:40.760Z,1.30
2022-10-04T19:30:14.044Z,2.60
2022-10-04T19:33:22.852Z,2.47
2022-10-04T19:36:50.348Z,2.25
2022-10-04T19:40:16.711Z,1.40
2022-10-04T19:43:44.491Z,1.67
2022-10-04T19:46:56.108Z,2.43
2022-10-04T19:50:13.605Z,1.33
2022-10-04T19:53:25.867Z,1.15
2022-10-04T19:56:32.555Z,1.27
2022-10-04T19:59:42.620Z,1.50
2022-10-04T20:02:48.515Z,1.42
2022-10-04T20:05:54.276Z,0.80
2022-10-04T20:09:02.587Z,1.05
2022-10-04T20:12:05.718Z,0.77
2022-10-04T20:15:16.697Z,0.60
2022-10-04T20:18:33.878Z,0.65
2022-10-04T20:21:35.982Z,2.10
2022-10-04T20:24:37.885Z,1.58
2022-10-04T20:27:39.820Z,1.17
2022-10-04T20:30:59.528Z,0.38
2022-10-04T20:34:38.826Z,0.87
2022-10-04T20:37:43.834Z,0.30
2022-10-04T20:40:46.062Z,0.80
2022-10-04T20:43:55.797Z,1.23
2022-10-04T20:46:58.929Z,0.93
2022-10-04T20:50:02.520Z,2.35
2022-10-04T20:53:13.801Z,0.95
2022-10-04T20:56:24.407Z,1.00
2022-10-04T20:59:26.432Z,1.20
2022-10-04T21:02:29.034Z,1.40
2022-10-04T21:05:31.031Z,0.55
2022-10-04T21:08:33.365Z,0.82
2022-10-04T21:11:47.088Z,0.57
2022-10-04T21:15:22.149Z,0.65
2022-10-04T21:18:24.259Z,1.50
2022-10-04T21:21:48.650Z,0.70
2022-10-04T21:24:50.550Z,1.17
2022-10-04T21:27:52.556Z,0.73
2022-10-04T21:30:54.602Z,1.25
2022-10-04T21:33:56.526Z,1.08
2022-10-04T21:36:58.916Z,1.50
2022-10-04T21:40:01.308Z,1.65
2022-10-04T21:43:03.268Z,1.42
2022-10-04T21:46:05.816Z,0.63
2022-10-04T21:49:08.044Z,1.13
2022-10-04T21:52:10.215Z,1.08
2022-10-04T21:55:12.098Z,0.85
2022-10-04T21:58:14.106Z,0.70
2022-10-04T22:01:16.025Z,1.17
2022-10-04T22:04:18.081Z,0.88
2022-10-04T22:07:19.978Z,0.95
2022-10-04T22:10:22.502Z,2.13
2022-10-04T22:13:24.439Z,1.48
2022-10-04T22:16:26.394Z,1.05
2022-10-04T22:19:28.384Z,1.13
2022-10-04T22:22:31.650Z,2.70
2022-10-04T22:25:34.616Z,0.38
2022-10-04T22:28:40.325Z,0.70
2022-10-04T22:31:51.457Z,1.08
2022-10-04T22:35:01.788Z,0.70
2022-10-04T22:38:08.168Z,0.65
2022-10-04T22:41:12.277Z,1.17
2022-10-04T22:44:35.550Z,0.53
2022-10-04T22:47:37.516Z,0.35
2022-10-04T22:50:39.816Z,1.58
2022-10-04T22:53:44.234Z,0.63
2022-10-04T22:56:46.677Z,1.05
2022-10-04T22:59:52.972Z,0.73
2022-10-04T23:02:55.545Z,0.88
2022-10-04T23:05:58.906Z,0.93
2022-10-04T23:09:00.832Z,1.50
2022-10-04T23:12:03.156Z,1.08
2022-10-04T23:15:08.573Z,1.27
2022-10-04T23:18:16.019Z,0.53
2022-10-04T23:21:22.068Z,0.80
2022-10-04T23:24:24.080Z,0.85
2022-10-04T23:27:26.109Z,0.50
2022-10-04T23:30:28.105Z,0.43
2022-10-04T23:33:30.498Z,0.45
2022-10-04T23:36:32.403Z,1.40
2022-10-04T23:39:34.839Z,1.60
2022-10-04T23:42:38.443Z,0.55
2022-10-04T23:45:42.171Z,0.50
2022-10-04T23:48:44.835Z,1.08
2022-10-04T23:51:48.165Z,0.57
2022-10-04T23:54:52.097Z,0.32
2022-10-04T23:57:54.057Z,0.63
